Time;durP1;ratioP1;P1;durP2;ratioP2;P2;SDS_P1;SDS_P2;PMS_P1;PMS_P2;Temp;Humidity;BMP_temperature;BMP_pressure;BME280_temperature;BME280_humidity;BME280_pressure;Samples;Min_cycle;Max_cycle;Signal;HPM_P1;HPM_P2
2022/09/29 07:01:56;;;;;;;3.60;2.55;;;;;;;;;;10709861;27;20026;-84
2022/09/29 07:07:38;;;;;;;5.75;3.20;;;;;;;;;;10688574;27;20070;-84
2022/09/29 07:12:39;;;;;;;5.47;3.75;;;;;;;;;;10702540;27;20061;-81
2022/09/29 07:17:40;;;;;;;9.48;5.60;;;;;;;;;;10707322;27;20095;-85
2022/09/29 07:22:41;;;;;;;;;;;;;;;;;;10678086;27;20035;-85
2022/09/29 07:27:42;;;;;;;9.95;8.27;;;;;;;;;;10670057;27;19972;-85
2022/09/29 07:32:45;;;;;;;11.80;9.82;;;;;;;;;;10672428;27;20051;-85
2022/09/29 07:37:55;;;;;;;11.18;8.73;;;;;;;;;;10666648;27;20038;-85
2022/09/29 07:42:59;;;;;;;15.60;12.30;;;;;;;;;;10666871;27;20022;-86
2022/09/29 07:48:00;;;;;;;14.55;12.32;;;;;;;;;;10667091;27;20126;-85
2022/09/29 07:53:02;;;;;;;15.35;12.90;;;;;;;;;;10672606;27;20022;-85
2022/09/29 07:58:03;;;;;;;17.73;14.20;;;;;;;;;;10674978;27;20066;-85
2022/09/29 08:03:06;;;;;;;15.73;13.02;;;;;;;;;;10665435;27;20618;-85
2022/09/29 08:08:07;;;;;;;11.80;10.05;;;;;;;;;;10667553;27;20121;-82
2022/09/29 08:13:08;;;;;;;;;;;;;;;;;;10675084;27;20050;-84
2022/09/29 08:18:09;;;;;;;11.63;9.07;;;;;;;;;;10674636;27;20002;-85
2022/09/29 08:23:10;;;;;;;10.52;8.00;;;;;;;;;;10673095;27;20026;-83
2022/09/29 08:28:11;;;;;;;9.45;7.65;;;;;;;;;;10671021;27;20030;-85
2022/09/29 08:33:13;;;;;;;;;;;;;;;;;;10668063;27;20027;-84
2022/09/29 08:38:14;;;;;;;7.60;5.70;;;;;;;;;;10667912;27;19999;-85
2022/09/29 08:43:42;;;;;;;6.85;5.30;;;;;;;;;;10683374;27;20112;-86
2022/09/29 08:48:44;;;;;;;7.68;6.20;;;;;;;;;;10660053;27;20091;-85
2022/09/29 08:53:47;;;;;;;6.88;5.47;;;;;;;;;;10658667;27;20015;-86
2022/09/29 08:58:58;;;;;;;7.80;6.90;;;;;;;;;;10658117;27;20027;-85
2022/09/29 09:04:07;;;;;;;6.97;5.25;;;;;;;;;;10658606;27;20031;-86
2022/09/29 09:09:29;;;;;;;7.50;6.80;;;;;;;;;;10659883;27;20064;-85
2022/09/29 09:14:48;;;;;;;5.10;4.60;;;;;;;;;;10677130;27;20015;-85
2022/09/29 09:20:01;;;;;;;7.43;5.43;;;;;;;;;;10656146;27;20113;-85
2022/09/29 09:25:10;;;;;;;8.82;7.47;;;;;;;;;;10659446;27;20051;-85
2022/09/29 09:36:11;;;;;;;8.43;5.80;;;;;;;;;;10630043;27;20023;-85
2022/09/29 09:41:15;;;;;;;5.15;4.28;;;;;;;;;;10656368;27;20046;-85
2022/09/29 09:46:23;;;;;;;5.88;3.92;;;;;;;;;;10671755;27;20039;-85
2022/09/29 09:51:24;;;;;;;6.40;4.65;;;;;;;;;;10659131;27;20623;-86
2022/09/29 09:56:34;;;;;;;5.60;4.15;;;;;;;;;;10659180;27;20030;-86
2022/09/29 10:01:36;;;;;;;;;;;;;;;;;;10659104;27;20109;-86
2022/09/29 10:06:37;;;;;;;6.10;3.70;;;;;;;;;;10662902;27;19911;-85
2022/09/29 10:11:38;;;;;;;5.43;4.40;;;;;;;;;;10691072;27;20045;-86
2022/09/29 10:16:58;;;;;;;4.90;2.95;;;;;;;;;;10659947;27;20071;-85
2022/09/29 10:22:14;;;;;;;4.23;3.03;;;;;;;;;;10666425;27;20032;-84
2022/09/29 10:32:59;;;;;;;4.18;2.00;;;;;;;;;;10638930;27;20031;-86
2022/09/29 10:38:21;;;;;;;4.82;2.15;;;;;;;;;;10664713;27;20119;-87
2022/09/29 10:43:40;;;;;;;7.05;4.13;;;;;;;;;;10662451;27;20023;-85
2022/09/29 10:48:41;;;;;;;3.70;2.10;;;;;;;;;;10660968;27;20030;-85
2022/09/29 10:53:54;;;;;;;4.18;2.92;;;;;;;;;;10660524;27;20372;-86
2022/09/29 10:58:57;;;;;;;3.75;2.38;;;;;;;;;;10663830;27;20087;-86
2022/09/29 11:04:05;;;;;;;2.40;1.70;;;;;;;;;;10663398;27;20039;-86
2022/09/29 11:09:15;;;;;;;2.97;1.90;;;;;;;;;;10662079;27;20372;-86
2022/09/29 11:14:40;;;;;;;4.53;3.20;;;;;;;;;;10656027;27;20031;-86
2022/09/29 11:19:41;;;;;;;3.33;1.90;;;;;;;;;;10651282;27;20030;-86
2022/09/29 11:25:06;;;;;;;4.05;2.55;;;;;;;;;;10669403;27;20035;-86
2022/09/29 11:30:20;;;;;;;2.40;1.77;;;;;;;;;;10661328;27;20118;-85
2022/09/29 11:35:43;;;;;;;5.10;3.20;;;;;;;;;;10663545;27;20113;-86
2022/09/29 11:41:03;;;;;;;3.22;1.60;;;;;;;;;;10687974;27;20030;-87
2022/09/29 11:46:24;;;;;;;3.00;2.07;;;;;;;;;;10675988;27;20060;-86
2022/09/29 11:51:28;;;;;;;6.20;3.42;;;;;;;;;;10666532;27;20038;-86
2022/09/29 11:56:32;;;;;;;3.72;2.38;;;;;;;;;;10670062;27;20113;-85
2022/09/29 12:02:18;;;;;;;6.18;3.20;;;;;;;;;;10662034;27;20010;-85
2022/09/29 12:07:39;;;;;;;3.78;3.10;;;;;;;;;;10468013;28;20041;-85
2022/09/29 12:12:59;;;;;;;2.60;1.50;;;;;;;;;;10632090;27;20046;-83
2022/09/29 12:18:03;;;;;;;3.40;1.90;;;;;;;;;;10670027;27;20022;-83
2022/09/29 12:23:07;;;;;;;3.28;1.98;;;;;;;;;;10673291;27;20114;-83
2022/09/29 12:28:15;;;;;;;3.58;1.60;;;;;;;;;;10669235;27;20127;-84
2022/09/29 12:33:28;;;;;;;2.90;1.50;;;;;;;;;;10663865;27;20106;-84
2022/09/29 12:38:39;;;;;;;2.42;1.77;;;;;;;;;;10664523;27;20038;-84
2022/09/29 12:43:58;;;;;;;2.47;1.70;;;;;;;;;;10663478;27;20030;-83
2022/09/29 12:49:06;;;;;;;2.45;1.58;;;;;;;;;;10659471;27;20035;-83
2022/09/29 12:54:20;;;;;;;3.53;2.00;;;;;;;;;;10659454;27;20014;-83
2022/09/29 12:59:36;;;;;;;4.05;1.95;;;;;;;;;;10676215;27;20019;-83
2022/09/29 13:04:49;;;;;;;2.88;1.50;;;;;;;;;;10665125;27;20094;-82
2022/09/29 13:10:05;;;;;;;3.45;1.70;;;;;;;;;;10682172;27;20034;-83
2022/09/29 13:15:06;;;;;;;3.83;1.98;;;;;;;;;;10680006;27;20098;-83
2022/09/29 13:20:19;;;;;;;3.53;2.00;;;;;;;;;;10661620;27;20022;-83
2022/09/29 13:25:22;;;;;;;4.03;2.28;;;;;;;;;;10659776;27;20068;-83
2022/09/29 13:30:32;;;;;;;3.92;3.00;;;;;;;;;;10663150;27;20380;-84
2022/09/29 13:35:38;;;;;;;3.67;2.70;;;;;;;;;;10664366;27;20117;-84
2022/09/29 13:40:39;;;;;;;3.72;2.65;;;;;;;;;;10680458;27;20022;-84
2022/09/29 13:45:40;;;;;;;4.30;3.03;;;;;;;;;;10665594;27;20087;-85
2022/09/29 13:50:43;;;;;;;3.78;2.95;;;;;;;;;;10655906;27;20023;-85
2022/09/29 13:55:48;;;;;;;4.78;3.15;;;;;;;;;;10655337;27;20460;-85
2022/09/29 14:00:50;;;;;;;5.22;3.05;;;;;;;;;;10655052;27;20072;-85
2022/09/29 14:05:56;;;;;;;5.63;3.30;;;;;;;;;;10658323;27;20470;-83
2022/09/29 14:11:06;;;;;;;4.95;3.08;;;;;;;;;;10665225;27;20045;-83
2022/09/29 14:16:16;;;;;;;4.65;3.10;;;;;;;;;;10655875;27;20460;-84
2022/09/29 14:21:36;;;;;;;5.75;2.97;;;;;;;;;;10654770;27;20035;-82
2022/09/29 14:26:52;;;;;;;5.47;3.58;;;;;;;;;;10653595;27;20110;-82
2022/09/29 14:31:56;;;;;;;4.97;2.85;;;;;;;;;;10664970;27;20029;-83
2022/09/29 14:37:06;;;;;;;9.50;5.65;;;;;;;;;;10664798;27;20026;-84
2022/09/29 14:42:23;;;;;;;7.65;3.80;;;;;;;;;;10665512;27;20464;-83
2022/09/29 14:53:02;;;;;;;8.02;3.58;;;;;;;;;;10687183;27;20026;-82
2022/09/29 14:58:03;;;;;;;4.78;3.10;;;;;;;;;;10675507;27;20025;-82
2022/09/29 15:03:09;;;;;;;7.60;3.45;;;;;;;;;;10671059;27;20106;-84
2022/09/29 15:08:30;;;;;;;4.90;3.08;;;;;;;;;;10678101;27;20050;-82
2022/09/29 15:13:36;;;;;;;8.82;3.45;;;;;;;;;;10704379;27;20027;-82
2022/09/29 15:19:07;;;;;;;6.22;3.25;;;;;;;;;;10682438;27;20053;-82
2022/09/29 15:30:04;;;;;;;5.88;3.50;;;;;;;;;;10702024;27;20026;-82
2022/09/29 15:35:11;;;;;;;6.65;2.85;;;;;;;;;;10669803;27;20043;-84
2022/09/29 15:46:12;;;;;;;4.88;2.45;;;;;;;;;;10680284;27;20035;-82
2022/09/29 15:58:01;;;;;;;4.82;2.22;;;;;;;;;;10683150;27;20392;-82
2022/09/29 16:03:28;;;;;;;2.80;1.70;;;;;;;;;;10708311;27;20086;-82
2022/09/29 16:08:33;;;;;;;6.15;1.98;;;;;;;;;;10671483;27;20090;-81
2022/09/29 16:19:35;;;;;;;3.58;1.70;;;;;;;;;;10695991;27;20039;-81
2022/09/29 16:25:18;;;;;;;3.28;1.60;;;;;;;;;;10681548;27;20034;-83
2022/09/29 16:30:56;;;;;;;2.78;1.67;;;;;;;;;;10513869;27;20495;-84
2022/09/29 16:53:02;;;;;;;2.92;1.63;;;;;;;;;;10682490;27;20011;-85
2022/09/29 17:38:06;;;;;;;2.38;1.42;;;;;;;;;;10701673;27;20038;-84
2022/09/29 17:55:14;;;;;;;2.75;1.90;;;;;;;;;;10513099;28;20033;-85
2022/09/29 18:06:27;;;;;;;3.40;2.63;;;;;;;;;;10525347;28;20037;-84
2022/09/29 18:17:06;;;;;;;2.85;2.00;;;;;;;;;;10514140;28;20043;-84
2022/09/29 18:45:22;;;;;;;2.33;1.70;;;;;;;;;;10644199;28;20039;-84
2022/09/29 19:07:41;;;;;;;3.30;2.53;;;;;;;;;;10642554;28;20024;-84
2022/09/29 19:13:16;;;;;;;4.00;2.25;;;;;;;;;;10639980;27;20066;-83
2022/09/29 19:18:23;;;;;;;4.35;3.50;;;;;;;;;;10688164;27;20074;-83
2022/09/29 19:23:28;;;;;;;4.95;4.18;;;;;;;;;;10705927;27;20156;-83
